sensor_id;sensor_type;location;lat;lon;timestamp;noise_LAeq;noise_LA_min;noise_LA_max;noise_LA01;noise_LA95
61249;Laerm;47119;49.130;9.218;2023-05-09T00:01:52;40.35;29.44;60.81;;
61249;Laerm;47119;49.130;9.218;2023-05-09T00:04:21;36.99;29.22;47.27;;
61249;Laerm;47119;49.130;9.218;2023-05-09T00:06:49;37.93;29.24;51.26;;
61249;Laerm;47119;49.130;9.218;2023-05-09T00:09:18;33.70;29.20;52.28;;
61249;Laerm;47119;49.130;9.218;2023-05-09T00:11:45;41.50;28.99;59.90;;
61249;Laerm;47119;49.130;9.218;2023-05-09T00:14:13;32.33;28.99;39.33;;
61249;Laerm;47119;49.130;9.218;2023-05-09T00:16:40;35.06;29.39;47.23;;
61249;Laerm;47119;49.130;9.218;2023-05-09T00:19:07;43.85;29.17;66.00;;
61249;Laerm;47119;49.130;9.218;2023-05-09T00:21:36;36.45;29.20;49.76;;
61249;Laerm;47119;49.130;9.218;2023-05-09T00:24:04;42.80;29.34;58.95;;
61249;Laerm;47119;49.130;9.218;2023-05-09T00:26:32;45.79;29.84;64.94;;
61249;Laerm;47119;49.130;9.218;2023-05-09T00:28:59;33.74;29.71;43.00;;
61249;Laerm;47119;49.130;9.218;2023-05-09T00:31:27;35.88;29.69;48.60;;
61249;Laerm;47119;49.130;9.218;2023-05-09T00:33:56;33.73;29.47;50.90;;
61249;Laerm;47119;49.130;9.218;2023-05-09T00:36:23;35.99;29.57;63.95;;
61249;Laerm;47119;49.130;9.218;2023-05-09T00:38:52;35.51;28.90;45.47;;
61249;Laerm;47119;49.130;9.218;2023-05-09T00:41:19;39.22;29.69;56.03;;
61249;Laerm;47119;49.130;9.218;2023-05-09T00:43:47;43.21;29.65;57.95;;
61249;Laerm;47119;49.130;9.218;2023-05-09T00:46:16;31.48;28.74;36.65;;
61249;Laerm;47119;49.130;9.218;2023-05-09T00:48:47;36.48;29.16;47.02;;
61249;Laerm;47119;49.130;9.218;2023-05-09T00:51:23;39.36;29.70;53.87;;
61249;Laerm;47119;49.130;9.218;2023-05-09T00:54:03;39.26;29.68;52.38;;
61249;Laerm;47119;49.130;9.218;2023-05-09T00:56:31;44.02;31.66;62.47;;
61249;Laerm;47119;49.130;9.218;2023-05-09T00:59:01;35.12;29.02;46.75;;
61249;Laerm;47119;49.130;9.218;2023-05-09T01:01:28;31.10;28.57;36.37;;
61249;Laerm;47119;49.130;9.218;2023-05-09T01:03:56;32.21;29.19;38.39;;
61249;Laerm;47119;49.130;9.218;2023-05-09T01:06:33;36.40;28.81;50.30;;
61249;Laerm;47119;49.130;9.218;2023-05-09T01:09:19;36.17;28.86;51.89;;
61249;Laerm;47119;49.130;9.218;2023-05-09T01:11:56;31.60;28.70;35.28;;
61249;Laerm;47119;49.130;9.218;2023-05-09T01:14:37;35.47;30.32;46.33;;
61249;Laerm;47119;49.130;9.218;2023-05-09T01:17:16;36.84;30.64;54.16;;
61249;Laerm;47119;49.130;9.218;2023-05-09T01:20:02;44.54;30.04;65.52;;
61249;Laerm;47119;49.130;9.218;2023-05-09T01:22:34;33.42;30.37;37.14;;
61249;Laerm;47119;49.130;9.218;2023-05-09T01:25:25;35.26;30.27;47.06;;
61249;Laerm;47119;49.130;9.218;2023-05-09T09:57:09;53.94;43.36;72.72;;
61249;Laerm;47119;49.130;9.218;2023-05-09T09:59:40;54.73;43.32;69.52;;
61249;Laerm;47119;49.130;9.218;2023-05-09T10:02:07;54.23;41.99;68.98;;
61249;Laerm;47119;49.130;9.218;2023-05-09T10:04:38;56.55;42.82;73.96;;
61249;Laerm;47119;49.130;9.218;2023-05-09T10:07:08;53.19;42.60;64.81;;
61249;Laerm;47119;49.130;9.218;2023-05-09T10:09:45;54.03;42.20;68.93;;
61249;Laerm;47119;49.130;9.218;2023-05-09T10:12:16;53.17;41.40;68.19;;
61249;Laerm;47119;49.130;9.218;2023-05-09T10:14:47;54.01;42.89;71.70;;
61249;Laerm;47119;49.130;9.218;2023-05-09T10:17:21;50.58;39.33;61.85;;
61249;Laerm;47119;49.130;9.218;2023-05-09T10:19:50;53.71;40.37;74.85;;
61249;Laerm;47119;49.130;9.218;2023-05-09T10:22:20;52.89;41.59;66.39;;
61249;Laerm;47119;49.130;9.218;2023-05-09T10:24:54;53.36;40.42;67.23;;
61249;Laerm;47119;49.130;9.218;2023-05-09T10:27:31;51.75;41.05;67.47;;
61249;Laerm;47119;49.130;9.218;2023-05-09T10:30:07;54.61;41.39;71.08;;
61249;Laerm;47119;49.130;9.218;2023-05-09T10:32:47;55.03;40.44;71.15;;
61249;Laerm;47119;49.130;9.218;2023-05-09T10:35:18;57.13;40.02;80.97;;
61249;Laerm;47119;49.130;9.218;2023-05-09T10:37:47;52.82;42.99;65.87;;
61249;Laerm;47119;49.130;9.218;2023-05-09T10:40:25;55.33;41.24;71.00;;
61249;Laerm;47119;49.130;9.218;2023-05-09T10:43:28;53.13;43.81;63.85;;
61249;Laerm;47119;49.130;9.218;2023-05-09T10:49:42;52.25;41.67;65.16;;
61249;Laerm;47119;49.130;9.218;2023-05-09T10:52:16;53.93;39.85;70.28;;
61249;Laerm;47119;49.130;9.218;2023-05-09T10:54:43;53.10;41.91;66.23;;
61249;Laerm;47119;49.130;9.218;2023-05-09T10:57:10;52.33;39.74;66.35;;
61249;Laerm;47119;49.130;9.218;2023-05-09T10:59:41;55.62;42.49;80.01;;
61249;Laerm;47119;49.130;9.218;2023-05-09T11:02:13;55.36;42.28;81.39;;
61249;Laerm;47119;49.130;9.218;2023-05-09T11:04:40;50.57;41.28;67.62;;
61249;Laerm;47119;49.130;9.218;2023-05-09T11:07:25;55.40;38.65;74.07;;
61249;Laerm;47119;49.130;9.218;2023-05-09T11:10:07;53.39;41.38;64.88;;
61249;Laerm;47119;49.130;9.218;2023-05-09T11:12:53;73.91;48.12;99.51;;
61249;Laerm;47119;49.130;9.218;2023-05-09T11:15:22;57.52;40.55;70.18;;
61249;Laerm;47119;49.130;9.218;2023-05-09T11:18:05;56.84;41.21;70.94;;
61249;Laerm;47119;49.130;9.218;2023-05-09T11:20:42;52.46;39.85;64.74;;
61249;Laerm;47119;49.130;9.218;2023-05-09T11:23:10;53.05;41.76;64.09;;
61249;Laerm;47119;49.130;9.218;2023-05-09T11:25:38;53.17;42.43;70.97;;
61249;Laerm;47119;49.130;9.218;2023-05-09T11:28:05;54.46;42.71;67.70;;
61249;Laerm;47119;49.130;9.218;2023-05-09T11:30:41;57.96;45.47;74.16;;
61249;Laerm;47119;49.130;9.218;2023-05-09T11:33:21;59.56;40.84;76.54;;
61249;Laerm;47119;49.130;9.218;2023-05-09T11:36:16;54.30;43.04;70.72;;
61249;Laerm;47119;49.130;9.218;2023-05-09T11:38:46;54.54;41.75;70.43;;
61249;Laerm;47119;49.130;9.218;2023-05-09T11:41:18;59.31;43.25;77.68;;
61249;Laerm;47119;49.130;9.218;2023-05-09T11:43:48;54.70;43.95;67.92;;
61249;Laerm;47119;49.130;9.218;2023-05-09T11:46:17;54.05;42.96;71.71;;
61249;Laerm;47119;49.130;9.218;2023-05-09T11:48:48;55.27;45.39;68.28;;
61249;Laerm;47119;49.130;9.218;2023-05-09T11:51:17;52.48;41.44;74.94;;
61249;Laerm;47119;49.130;9.218;2023-05-09T11:53:45;52.85;40.59;64.51;;
61249;Laerm;47119;49.130;9.218;2023-05-09T11:56:15;54.93;40.82;69.84;;
61249;Laerm;47119;49.130;9.218;2023-05-09T11:58:43;52.45;42.07;65.32;;
61249;Laerm;47119;49.130;9.218;2023-05-09T12:01:11;53.80;41.21;69.61;;
61249;Laerm;47119;49.130;9.218;2023-05-09T12:03:44;69.49;44.94;90.02;;
61249;Laerm;47119;49.130;9.218;2023-05-09T12:06:15;54.02;43.25;67.44;;
61249;Laerm;47119;49.130;9.218;2023-05-09T12:08:43;53.82;42.10;64.10;;
61249;Laerm;47119;49.130;9.218;2023-05-09T12:11:13;52.55;43.53;69.29;;
61249;Laerm;47119;49.130;9.218;2023-05-09T12:13:45;52.08;39.46;65.12;;
61249;Laerm;47119;49.130;9.218;2023-05-09T12:16:14;53.43;42.48;67.12;;
61249;Laerm;47119;49.130;9.218;2023-05-09T12:18:47;53.81;42.42;66.57;;
61249;Laerm;47119;49.130;9.218;2023-05-09T12:21:15;52.45;40.88;68.75;;
61249;Laerm;47119;49.130;9.218;2023-05-09T12:23:42;60.87;41.93;77.53;;
61249;Laerm;47119;49.130;9.218;2023-05-09T12:26:10;59.21;44.13;76.28;;
61249;Laerm;47119;49.130;9.218;2023-05-09T12:28:38;54.83;41.43;69.37;;
61249;Laerm;47119;49.130;9.218;2023-05-09T12:31:06;61.64;41.79;82.92;;
61249;Laerm;47119;49.130;9.218;2023-05-09T12:33:37;53.35;41.03;65.54;;
61249;Laerm;47119;49.130;9.218;2023-05-09T12:36:09;59.42;44.24;85.21;;
61249;Laerm;47119;49.130;9.218;2023-05-09T17:45:16;58.24;39.37;73.14;;
61249;Laerm;47119;49.130;9.218;2023-05-09T17:47:50;53.35;42.13;68.92;;
61249;Laerm;47119;49.130;9.218;2023-05-09T17:50:18;61.02;39.84;83.58;;
61249;Laerm;47119;49.130;9.218;2023-05-09T17:52:51;58.49;40.11;79.74;;
61249;Laerm;47119;49.130;9.218;2023-05-09T17:55:18;53.27;40.61;65.94;;
61249;Laerm;47119;49.130;9.218;2023-05-09T17:57:45;51.19;39.54;65.80;;
61249;Laerm;47119;49.130;9.218;2023-05-09T18:00:22;52.59;39.81;64.65;;
61249;Laerm;47119;49.130;9.218;2023-05-09T18:02:51;54.92;41.05;70.22;;
61249;Laerm;47119;49.130;9.218;2023-05-09T18:05:21;52.00;38.38;64.81;;
61249;Laerm;47119;49.130;9.218;2023-05-09T18:07:51;53.86;39.95;69.27;;
61249;Laerm;47119;49.130;9.218;2023-05-09T18:10:21;52.28;41.96;63.51;;
61249;Laerm;47119;49.130;9.218;2023-05-09T18:12:48;53.79;43.52;65.16;;
61249;Laerm;47119;49.130;9.218;2023-05-09T18:15:19;53.52;43.23;66.44;;
61249;Laerm;47119;49.130;9.218;2023-05-09T18:17:46;64.63;44.74;78.72;;
61249;Laerm;47119;49.130;9.218;2023-05-09T18:20:14;58.62;52.40;73.66;;
61249;Laerm;47119;49.130;9.218;2023-05-09T18:22:41;57.32;45.92;76.52;;
61249;Laerm;47119;49.130;9.218;2023-05-09T18:25:09;55.03;45.31;71.49;;
61249;Laerm;47119;49.130;9.218;2023-05-09T18:27:38;56.59;46.80;68.65;;
61249;Laerm;47119;49.130;9.218;2023-05-09T18:34:57;59.62;45.68;72.16;;
61249;Laerm;47119;49.130;9.218;2023-05-09T19:30:01;48.62;35.95;67.52;;
61249;Laerm;47119;49.130;9.218;2023-05-09T19:32:29;51.06;36.10;69.74;;
61249;Laerm;47119;49.130;9.218;2023-05-09T19:34:57;50.24;37.23;69.81;;
61249;Laerm;47119;49.130;9.218;2023-05-09T19:37:25;51.66;38.55;66.57;;
61249;Laerm;47119;49.130;9.218;2023-05-09T19:39:52;52.75;39.77;67.87;;
61249;Laerm;47119;49.130;9.218;2023-05-09T19:42:22;52.92;39.09;67.73;;
61249;Laerm;47119;49.130;9.218;2023-05-09T19:44:50;52.65;39.77;67.01;;
61249;Laerm;47119;49.130;9.218;2023-05-09T19:47:19;50.70;39.15;65.22;;
61249;Laerm;47119;49.130;9.218;2023-05-09T19:49:46;52.05;36.96;71.49;;
61249;Laerm;47119;49.130;9.218;2023-05-09T19:52:14;49.56;36.37;68.00;;
61249;Laerm;47119;49.130;9.218;2023-05-09T19:54:41;48.83;37.85;68.88;;
61249;Laerm;47119;49.130;9.218;2023-05-09T19:57:08;49.15;37.81;68.42;;
61249;Laerm;47119;49.130;9.218;2023-05-09T19:59:37;52.22;37.11;70.26;;
61249;Laerm;47119;49.130;9.218;2023-05-09T20:02:04;51.21;41.31;73.57;;
61249;Laerm;47119;49.130;9.218;2023-05-09T20:04:35;52.80;41.12;68.85;;
61249;Laerm;47119;49.130;9.218;2023-05-09T20:07:03;50.55;39.70;69.43;;
61249;Laerm;47119;49.130;9.218;2023-05-09T20:09:30;53.85;41.28;70.83;;
61249;Laerm;47119;49.130;9.218;2023-05-09T20:12:00;54.08;41.18;68.59;;
61249;Laerm;47119;49.130;9.218;2023-05-09T20:14:27;55.20;44.73;72.83;;
61249;Laerm;47119;49.130;9.218;2023-05-09T20:16:55;54.46;43.04;69.05;;
61249;Laerm;47119;49.130;9.218;2023-05-09T20:19:25;57.02;43.99;78.73;;
61249;Laerm;47119;49.130;9.218;2023-05-09T20:21:56;51.31;42.50;74.61;;
61249;Laerm;47119;49.130;9.218;2023-05-09T20:24:29;53.76;40.65;68.87;;
61249;Laerm;47119;49.130;9.218;2023-05-09T20:27:00;52.43;42.53;69.00;;
61249;Laerm;47119;49.130;9.218;2023-05-09T20:29:30;51.59;41.60;68.90;;
61249;Laerm;47119;49.130;9.218;2023-05-09T20:31:58;53.11;42.14;71.36;;
61249;Laerm;47119;49.130;9.218;2023-05-09T20:34:25;51.94;39.13;71.40;;
61249;Laerm;47119;49.130;9.218;2023-05-09T20:36:53;55.28;39.59;72.90;;
61249;Laerm;47119;49.130;9.218;2023-05-09T20:39:24;53.92;41.09;70.84;;
61249;Laerm;47119;49.130;9.218;2023-05-09T20:41:54;54.73;40.69;71.09;;
61249;Laerm;47119;49.130;9.218;2023-05-09T20:44:25;50.39;38.61;72.27;;
61249;Laerm;47119;49.130;9.218;2023-05-09T20:46:56;50.56;40.17;70.67;;
61249;Laerm;47119;49.130;9.218;2023-05-09T20:49:23;48.61;38.05;68.53;;
61249;Laerm;47119;49.130;9.218;2023-05-09T20:51:52;52.62;39.53;73.63;;
61249;Laerm;47119;49.130;9.218;2023-05-09T20:54:20;52.74;39.73;68.40;;
61249;Laerm;47119;49.130;9.218;2023-05-09T20:56:50;52.29;41.12;68.47;;
61249;Laerm;47119;49.130;9.218;2023-05-09T20:59:23;53.82;40.22;69.83;;
61249;Laerm;47119;49.130;9.218;2023-05-09T21:01:56;53.21;40.28;69.93;;
61249;Laerm;47119;49.130;9.218;2023-05-09T21:04:33;55.09;40.00;72.03;;
61249;Laerm;47119;49.130;9.218;2023-05-09T21:07:07;51.40;39.73;67.35;;
61249;Laerm;47119;49.130;9.218;2023-05-09T21:09:38;54.47;41.16;71.69;;
61249;Laerm;47119;49.130;9.218;2023-05-09T21:12:10;53.21;41.36;70.31;;
61249;Laerm;47119;49.130;9.218;2023-05-09T21:14:44;50.90;39.32;70.85;;
61249;Laerm;47119;49.130;9.218;2023-05-09T21:26:14;51.72;39.23;70.47;;
61249;Laerm;47119;49.130;9.218;2023-05-09T21:28:43;52.52;39.85;73.75;;
61249;Laerm;47119;49.130;9.218;2023-05-09T21:31:11;53.06;38.55;71.11;;
61249;Laerm;47119;49.130;9.218;2023-05-09T21:33:39;51.90;39.29;69.55;;
61249;Laerm;47119;49.130;9.218;2023-05-09T21:36:07;51.39;38.70;72.98;;
61249;Laerm;47119;49.130;9.218;2023-05-09T21:38:37;52.03;37.44;78.33;;
61249;Laerm;47119;49.130;9.218;2023-05-09T21:41:07;51.36;36.77;71.33;;
61249;Laerm;47119;49.130;9.218;2023-05-09T21:43:37;50.96;36.96;71.21;;
61249;Laerm;47119;49.130;9.218;2023-05-09T21:46:09;50.71;37.33;69.76;;
61249;Laerm;47119;49.130;9.218;2023-05-09T21:48:37;52.38;36.20;78.55;;
61249;Laerm;47119;49.130;9.218;2023-05-09T21:51:05;49.50;36.86;67.86;;
61249;Laerm;47119;49.130;9.218;2023-05-09T21:53:40;49.07;35.75;71.72;;
61249;Laerm;47119;49.130;9.218;2023-05-09T21:56:07;48.69;36.51;68.01;;
61249;Laerm;47119;49.130;9.218;2023-05-09T21:58:35;51.81;36.45;82.18;;
61249;Laerm;47119;49.130;9.218;2023-05-09T22:01:03;47.31;35.71;70.82;;
61249;Laerm;47119;49.130;9.218;2023-05-09T22:03:36;52.71;35.94;75.09;;
61249;Laerm;47119;49.130;9.218;2023-05-09T22:06:04;49.21;34.33;68.14;;
61249;Laerm;47119;49.130;9.218;2023-05-09T22:18:00;52.92;42.15;71.39;;
61249;Laerm;47119;49.130;9.218;2023-05-09T22:20:29;53.60;43.10;72.52;;
61249;Laerm;47119;49.130;9.218;2023-05-09T22:22:57;60.60;44.81;76.69;;
61249;Laerm;47119;49.130;9.218;2023-05-09T22:25:24;63.26;53.01;80.62;;
61249;Laerm;47119;49.130;9.218;2023-05-09T22:27:53;57.73;44.67;72.65;;
61249;Laerm;47119;49.130;9.218;2023-05-09T22:30:21;55.77;46.67;72.48;;
61249;Laerm;47119;49.130;9.218;2023-05-09T22:32:48;56.40;46.80;75.80;;
61249;Laerm;47119;49.130;9.218;2023-05-09T22:35:16;52.68;41.04;72.68;;
61249;Laerm;47119;49.130;9.218;2023-05-09T22:37:44;49.89;38.89;72.07;;
61249;Laerm;47119;49.130;9.218;2023-05-09T22:40:13;48.41;37.71;71.18;;
61249;Laerm;47119;49.130;9.218;2023-05-09T22:42:40;48.63;38.11;69.72;;
61249;Laerm;47119;49.130;9.218;2023-05-09T22:45:08;47.80;36.81;73.59;;
61249;Laerm;47119;49.130;9.218;2023-05-09T22:47:36;50.20;37.60;81.73;;
61249;Laerm;47119;49.130;9.218;2023-05-09T22:50:04;46.87;36.82;70.95;;
61249;Laerm;47119;49.130;9.218;2023-05-09T22:52:32;51.86;37.34;70.99;;
61249;Laerm;47119;49.130;9.218;2023-05-09T22:55:00;46.27;35.56;69.63;;
61249;Laerm;47119;49.130;9.218;2023-05-09T22:57:29;47.66;34.80;69.11;;
61249;Laerm;47119;49.130;9.218;2023-05-09T22:59:56;47.30;36.64;71.41;;
61249;Laerm;47119;49.130;9.218;2023-05-09T23:02:24;50.73;39.97;71.23;;
61249;Laerm;47119;49.130;9.218;2023-05-09T23:04:52;48.52;38.79;71.16;;
61249;Laerm;47119;49.130;9.218;2023-05-09T23:07:19;48.51;38.32;71.60;;
61249;Laerm;47119;49.130;9.218;2023-05-09T23:09:46;47.84;37.84;69.30;;
61249;Laerm;47119;49.130;9.218;2023-05-09T23:12:15;47.84;36.99;75.41;;
61249;Laerm;47119;49.130;9.218;2023-05-09T23:14:42;49.03;36.02;68.79;;
61249;Laerm;47119;49.130;9.218;2023-05-09T23:17:09;47.23;36.01;74.17;;
61249;Laerm;47119;49.130;9.218;2023-05-09T23:19:36;46.35;34.89;74.55;;
61249;Laerm;47119;49.130;9.218;2023-05-09T23:22:03;46.01;36.24;71.29;;
61249;Laerm;47119;49.130;9.218;2023-05-09T23:24:30;47.00;34.84;69.68;;
61249;Laerm;47119;49.130;9.218;2023-05-09T23:26:58;48.90;34.24;69.34;;
61249;Laerm;47119;49.130;9.218;2023-05-09T23:29:26;46.35;34.30;75.60;;
61249;Laerm;47119;49.130;9.218;2023-05-09T23:31:56;44.03;33.25;71.78;;
61249;Laerm;47119;49.130;9.218;2023-05-09T23:34:25;44.21;32.60;70.70;;
61249;Laerm;47119;49.130;9.218;2023-05-09T23:36:54;43.36;32.05;71.52;;
61249;Laerm;47119;49.130;9.218;2023-05-09T23:39:23;44.98;33.15;72.01;;
61249;Laerm;47119;49.130;9.218;2023-05-09T23:41:50;41.48;33.15;62.03;;
61249;Laerm;47119;49.130;9.218;2023-05-09T23:44:18;43.65;34.56;71.77;;
61249;Laerm;47119;49.130;9.218;2023-05-09T23:46:51;41.35;34.48;64.53;;
61249;Laerm;47119;49.130;9.218;2023-05-09T23:49:20;42.49;33.89;67.67;;
61249;Laerm;47119;49.130;9.218;2023-05-09T23:51:50;47.64;34.16;67.36;;
61249;Laerm;47119;49.130;9.218;2023-05-09T23:54:20;43.87;35.62;66.29;;
61249;Laerm;47119;49.130;9.218;2023-05-09T23:56:49;44.57;35.47;71.56;;
61249;Laerm;47119;49.130;9.218;2023-05-09T23:59:18;47.33;34.86;74.15;;
